INFORMAÇÕES DO AERODROMO
Icao Aerodromo WAMM Nome do Aerodromo Sam Ratulangi Airport Cidade Manado-Celebes Island
Código GPS WAMM Elevação Média 264 ft Tipo de Aerodromo Aeroporto Médio Porte

INFORMAÇÃO DE PISTA
Pista 18 Comprimento da Pista 8693 ft Largura da Pista 148 ft
Elevação da Pista 270 ft Distância de Area de Escape da Pista 0 ft Orientação da Pista 182
Pista 36 Comprimento da Pista 8693 ft Largura da Pista 148 ft
Elevação da Pista 264 ft Distância de Area de Escape da Pista 0 ft Orientação da Pista 2

FREQUÊNCIAS DO AERODROMO
Tipo APP Nome MANADO APP Frequência 119 MHZ
Tipo ATIS Nome ATIS Frequência 126.4 MHZ
Tipo INFO Nome MANADO INF Frequência 891.8 MHZ
Tipo TWR Nome RATULANGI Frequência 118.1 MHZ

INFORMAÇÕES DE NAVEGAÇÃO PRÓXIMO AO AERODROMO
Tipo NDB Nome Manado Frequência 255 KHZ
Tipo VOR-DME Nome Manado Frequência 114200 KHZ
Tipo VOR-DME Nome Manado Frequência 114800 KHZ
Tipo NDB Nome Manado Frequência 290 KHZ

Informações de Meteorologia(METAR atual)
METAR DE WAMM
ADDS - METARS form results

(1943 UTC 24 May 2018)
Data provider http://aviationweather.gov/adds/metars/
 
METAR text: WAMM 241930Z 13002KT 9999 FEW022 24/23 Q1007 NOSIG
Conditions at: WAMM (MENADO/SAM RATUL, ID) observed 1930 UTC 24 May 2018
Temperature: 24.0°C (75°F)
Dewpoint: 23.0°C (73°F) [RH = 94%]
Pressure (altimeter): 29.73 inches Hg (1007.0 mb)
Winds: from the SE (130 degrees) at 2 MPH (2 knots; 1.0 m/s)
Visibility: 6 or more miles (10+ km)
Ceiling: at least 12,000 feet AGL
Clouds: few clouds at 2200 feet AGL
Weather: no significant weather observed at this time

METAR text: WAMM 241900Z 10002KT 9999 FEW022 24/23 Q1007 NOSIG
Conditions at: WAMM (MENADO/SAM RATUL, ID) observed 1900 UTC 24 May 2018
Temperature: 24.0°C (75°F)
Dewpoint: 23.0°C (73°F) [RH = 94%]
Pressure (altimeter): 29.73 inches Hg (1007.0 mb)
Winds: from the E (100 degrees) at 2 MPH (2 knots; 1.0 m/s)
Visibility: 6 or more miles (10+ km)
Ceiling: at least 12,000 feet AGL
Clouds: few clouds at 2200 feet AGL
Weather: no significant weather observed at this time

Forecast for: WAMM (MENADO/SAM RATUL, ID)
Text: TAF WAMM 241700Z 2418/2524 08002KT 9000 FEW022
Forecast period: 1800 to 2300 UTC 24 May 2018
Forecast type: FROM: standard forecast or significant change
Winds: from the E (80 degrees) at 2 MPH (2 knots; 1.0 m/s)
Visibility: 6 miles (9 km)
Clouds: few clouds at 2200 feet AGL
Weather: no significant weather forecast for this period
Text: BECMG 2423/2501 10008KT
Forecast period: 2300 UTC 24 May 2018 to 0000 UTC 26 May 2018
Forecast type: BECOMING: Conditions expected to become as follows by 0100 UTC 25 May 2018
Winds: from the E (100 degrees) at 9 MPH (8 knots; 4.2 m/s)
Visibility: 6 miles (9 km)
Clouds: few clouds at 2200 feet AGL
Weather: no significant weather forecast for this period

MAPA DO AERODROMO


Desenvolvido por Virtual Airlines Manager




Modificado por Servidor Brasil Amigos